sensor_id;sensor_type;location;lat;lon;timestamp;temperature;humidity
38480;DHT22;62333;51.980;5.934;2023-03-14T00:01:51;13.60;89.90
38480;DHT22;62333;51.980;5.934;2023-03-14T00:04:17;13.60;89.90
38480;DHT22;62333;51.980;5.934;2023-03-14T00:06:42;13.60;90.00
38480;DHT22;62333;51.980;5.934;2023-03-14T00:09:08;13.60;90.00
38480;DHT22;62333;51.980;5.934;2023-03-14T00:11:34;13.60;90.10
38480;DHT22;62333;51.980;5.934;2023-03-14T00:13:59;13.50;90.10
38480;DHT22;62333;51.980;5.934;2023-03-14T00:16:27;13.50;90.20
38480;DHT22;62333;51.980;5.934;2023-03-14T00:18:52;13.50;90.10
38480;DHT22;62333;51.980;5.934;2023-03-14T00:21:18;13.50;90.20
38480;DHT22;62333;51.980;5.934;2023-03-14T00:23:44;13.50;90.30
38480;DHT22;62333;51.980;5.934;2023-03-14T00:26:13;13.40;90.30
38480;DHT22;62333;51.980;5.934;2023-03-14T00:28:39;13.50;90.30
38480;DHT22;62333;51.980;5.934;2023-03-14T00:31:07;13.50;90.40
38480;DHT22;62333;51.980;5.934;2023-03-14T00:33:34;13.50;90.50
38480;DHT22;62333;51.980;5.934;2023-03-14T00:36:04;13.40;90.50
38480;DHT22;62333;51.980;5.934;2023-03-14T00:38:32;13.30;90.60
38480;DHT22;62333;51.980;5.934;2023-03-14T00:40:58;13.20;90.60
38480;DHT22;62333;51.980;5.934;2023-03-14T00:43:23;13.10;90.50
38480;DHT22;62333;51.980;5.934;2023-03-14T00:45:50;13.10;90.50
38480;DHT22;62333;51.980;5.934;2023-03-14T00:48:16;13.00;90.40
38480;DHT22;62333;51.980;5.934;2023-03-14T00:50:42;13.00;90.30
38480;DHT22;62333;51.980;5.934;2023-03-14T00:53:08;13.00;90.20
38480;DHT22;62333;51.980;5.934;2023-03-14T00:55:41;13.00;90.10
38480;DHT22;62333;51.980;5.934;2023-03-14T00:58:11;13.00;89.80
38480;DHT22;62333;51.980;5.934;2023-03-14T01:00:38;12.90;89.60
38480;DHT22;62333;51.980;5.934;2023-03-14T01:03:04;12.90;89.40
38480;DHT22;62333;51.980;5.934;2023-03-14T01:05:30;12.90;89.30
38480;DHT22;62333;51.980;5.934;2023-03-14T01:07:56;12.90;89.30
38480;DHT22;62333;51.980;5.934;2023-03-14T01:10:22;12.80;89.30
38480;DHT22;62333;51.980;5.934;2023-03-14T01:12:48;12.80;89.30
38480;DHT22;62333;51.980;5.934;2023-03-14T01:15:14;12.80;89.30
38480;DHT22;62333;51.980;5.934;2023-03-14T01:17:40;12.80;89.20
38480;DHT22;62333;51.980;5.934;2023-03-14T01:20:07;12.80;89.70
38480;DHT22;62333;51.980;5.934;2023-03-14T01:22:37;12.80;89.00
38480;DHT22;62333;51.980;5.934;2023-03-14T01:25:06;12.90;88.90
38480;DHT22;62333;51.980;5.934;2023-03-14T01:27:32;12.80;88.80
38480;DHT22;62333;51.980;5.934;2023-03-14T01:29:58;12.80;88.80
38480;DHT22;62333;51.980;5.934;2023-03-14T01:32:24;12.80;88.40
38480;DHT22;62333;51.980;5.934;2023-03-14T01:34:51;12.80;88.00
38480;DHT22;62333;51.980;5.934;2023-03-14T01:37:16;12.80;87.90
38480;DHT22;62333;51.980;5.934;2023-03-14T01:39:42;12.80;88.20
38480;DHT22;62333;51.980;5.934;2023-03-14T01:42:08;12.70;87.50
38480;DHT22;62333;51.980;5.934;2023-03-14T01:44:56;12.70;87.40
38480;DHT22;62333;51.980;5.934;2023-03-14T01:47:22;12.70;87.50
38480;DHT22;62333;51.980;5.934;2023-03-14T01:49:56;12.70;87.80
38480;DHT22;62333;51.980;5.934;2023-03-14T01:52:28;12.70;88.10
38480;DHT22;62333;51.980;5.934;2023-03-14T01:55:06;12.70;88.30
38480;DHT22;62333;51.980;5.934;2023-03-14T01:57:35;12.60;88.40
38480;DHT22;62333;51.980;5.934;2023-03-14T02:00:05;12.60;88.50
38480;DHT22;62333;51.980;5.934;2023-03-14T02:02:45;12.60;88.60
38480;DHT22;62333;51.980;5.934;2023-03-14T02:05:12;12.70;89.40
38480;DHT22;62333;51.980;5.934;2023-03-14T02:07:47;12.60;89.80
38480;DHT22;62333;51.980;5.934;2023-03-14T02:10:16;12.60;90.20
38480;DHT22;62333;51.980;5.934;2023-03-14T02:12:45;12.60;90.40
38480;DHT22;62333;51.980;5.934;2023-03-14T02:15:12;12.60;90.60
38480;DHT22;62333;51.980;5.934;2023-03-14T02:17:38;12.50;90.70
38480;DHT22;62333;51.980;5.934;2023-03-14T02:22:54;12.50;91.20
38480;DHT22;62333;51.980;5.934;2023-03-14T02:25:46;12.40;91.40
38480;DHT22;62333;51.980;5.934;2023-03-14T02:28:14;12.40;91.60
38480;DHT22;62333;51.980;5.934;2023-03-14T02:30:40;12.30;91.60
38480;DHT22;62333;51.980;5.934;2023-03-14T02:33:12;12.30;91.70
38480;DHT22;62333;51.980;5.934;2023-03-14T02:38:18;12.20;91.90
38480;DHT22;62333;51.980;5.934;2023-03-14T02:40:45;12.20;92.00
38480;DHT22;62333;51.980;5.934;2023-03-14T02:43:11;12.10;92.00
38480;DHT22;62333;51.980;5.934;2023-03-14T02:45:41;12.10;92.20
38480;DHT22;62333;51.980;5.934;2023-03-14T02:48:25;12.10;92.20
38480;DHT22;62333;51.980;5.934;2023-03-14T02:50:55;12.10;92.20
38480;DHT22;62333;51.980;5.934;2023-03-14T02:53:27;12.00;92.30
38480;DHT22;62333;51.980;5.934;2023-03-14T02:55:54;12.10;92.30
38480;DHT22;62333;51.980;5.934;2023-03-14T02:58:20;12.00;92.30
38480;DHT22;62333;51.980;5.934;2023-03-14T03:00:46;12.00;92.30
38480;DHT22;62333;51.980;5.934;2023-03-14T03:03:13;11.90;92.40
38480;DHT22;62333;51.980;5.934;2023-03-14T03:05:38;11.90;92.50
38480;DHT22;62333;51.980;5.934;2023-03-14T03:08:05;11.90;92.50
38480;DHT22;62333;51.980;5.934;2023-03-14T03:10:31;11.80;92.50
38480;DHT22;62333;51.980;5.934;2023-03-14T03:12:56;11.80;92.60
38480;DHT22;62333;51.980;5.934;2023-03-14T03:15:24;11.80;92.60
38480;DHT22;62333;51.980;5.934;2023-03-14T03:17:49;11.80;92.60
38480;DHT22;62333;51.980;5.934;2023-03-14T03:20:15;11.80;92.70
38480;DHT22;62333;51.980;5.934;2023-03-14T03:22:41;11.80;92.60
38480;DHT22;62333;51.980;5.934;2023-03-14T03:25:07;11.70;92.70
38480;DHT22;62333;51.980;5.934;2023-03-14T03:27:34;11.70;92.60
38480;DHT22;62333;51.980;5.934;2023-03-14T03:30:01;11.70;92.60
38480;DHT22;62333;51.980;5.934;2023-03-14T03:32:27;11.80;92.60
38480;DHT22;62333;51.980;5.934;2023-03-14T03:34:53;11.70;92.60
38480;DHT22;62333;51.980;5.934;2023-03-14T03:37:19;11.70;92.60
38480;DHT22;62333;51.980;5.934;2023-03-14T03:39:44;11.70;92.60
38480;DHT22;62333;51.980;5.934;2023-03-14T03:42:10;11.70;92.50
38480;DHT22;62333;51.980;5.934;2023-03-14T03:44:36;11.70;92.50
38480;DHT22;62333;51.980;5.934;2023-03-14T03:47:02;11.70;92.40
38480;DHT22;62333;51.980;5.934;2023-03-14T03:49:32;11.70;92.50
38480;DHT22;62333;51.980;5.934;2023-03-14T03:51:58;11.60;92.50
38480;DHT22;62333;51.980;5.934;2023-03-14T03:54:24;11.60;92.50
38480;DHT22;62333;51.980;5.934;2023-03-14T03:56:50;11.60;92.50
38480;DHT22;62333;51.980;5.934;2023-03-14T03:59:16;11.60;92.40
38480;DHT22;62333;51.980;5.934;2023-03-14T04:01:42;11.60;92.40
38480;DHT22;62333;51.980;5.934;2023-03-14T04:04:08;11.60;92.30
38480;DHT22;62333;51.980;5.934;2023-03-14T04:06:33;11.70;92.30
38480;DHT22;62333;51.980;5.934;2023-03-14T04:08:59;11.70;92.20
38480;DHT22;62333;51.980;5.934;2023-03-14T04:11:25;11.70;92.20
38480;DHT22;62333;51.980;5.934;2023-03-14T04:13:50;11.70;92.10
38480;DHT22;62333;51.980;5.934;2023-03-14T04:16:19;11.80;92.00
38480;DHT22;62333;51.980;5.934;2023-03-14T04:18:46;11.80;91.90
38480;DHT22;62333;51.980;5.934;2023-03-14T04:21:11;11.80;91.90
38480;DHT22;62333;51.980;5.934;2023-03-14T04:23:37;11.80;91.90
38480;DHT22;62333;51.980;5.934;2023-03-14T04:26:03;11.80;91.80
38480;DHT22;62333;51.980;5.934;2023-03-14T04:28:29;11.80;91.80
38480;DHT22;62333;51.980;5.934;2023-03-14T04:30:54;11.90;91.80
38480;DHT22;62333;51.980;5.934;2023-03-14T04:33:20;11.80;91.70
38480;DHT22;62333;51.980;5.934;2023-03-14T04:35:46;11.90;91.70
38480;DHT22;62333;51.980;5.934;2023-03-14T04:38:13;11.90;91.70
38480;DHT22;62333;51.980;5.934;2023-03-14T04:40:42;11.80;91.60
38480;DHT22;62333;51.980;5.934;2023-03-14T04:43:10;11.90;91.80
38480;DHT22;62333;51.980;5.934;2023-03-14T04:45:36;11.90;91.50
38480;DHT22;62333;51.980;5.934;2023-03-14T04:48:02;11.90;91.50
38480;DHT22;62333;51.980;5.934;2023-03-14T04:50:28;11.90;91.40
38480;DHT22;62333;51.980;5.934;2023-03-14T04:52:54;12.00;91.40
38480;DHT22;62333;51.980;5.934;2023-03-14T04:55:19;12.00;91.30
38480;DHT22;62333;51.980;5.934;2023-03-14T04:57:45;12.00;91.20
38480;DHT22;62333;51.980;5.934;2023-03-14T05:00:11;12.10;91.20
38480;DHT22;62333;51.980;5.934;2023-03-14T05:02:37;12.10;91.20
38480;DHT22;62333;51.980;5.934;2023-03-14T05:05:03;12.10;91.10
38480;DHT22;62333;51.980;5.934;2023-03-14T05:07:29;12.10;91.10
38480;DHT22;62333;51.980;5.934;2023-03-14T05:09:54;12.10;91.00
38480;DHT22;62333;51.980;5.934;2023-03-14T05:12:20;12.10;91.00
38480;DHT22;62333;51.980;5.934;2023-03-14T05:14:46;12.20;91.00
38480;DHT22;62333;51.980;5.934;2023-03-14T05:17:12;12.20;90.90
38480;DHT22;62333;51.980;5.934;2023-03-14T05:19:40;12.20;90.90
38480;DHT22;62333;51.980;5.934;2023-03-14T05:22:06;12.20;90.90
38480;DHT22;62333;51.980;5.934;2023-03-14T05:24:32;12.10;90.90
38480;DHT22;62333;51.980;5.934;2023-03-14T05:26:57;12.10;91.00
38480;DHT22;62333;51.980;5.934;2023-03-14T05:29:23;12.00;91.20
38480;DHT22;62333;51.980;5.934;2023-03-14T05:31:49;11.90;91.30
38480;DHT22;62333;51.980;5.934;2023-03-14T05:34:15;11.90;91.40
38480;DHT22;62333;51.980;5.934;2023-03-14T05:36:40;11.90;91.40
38480;DHT22;62333;51.980;5.934;2023-03-14T05:39:06;11.90;91.60
38480;DHT22;62333;51.980;5.934;2023-03-14T05:41:31;11.90;91.70
38480;DHT22;62333;51.980;5.934;2023-03-14T05:43:57;11.80;91.80
38480;DHT22;62333;51.980;5.934;2023-03-14T05:46:23;11.90;91.80
38480;DHT22;62333;51.980;5.934;2023-03-14T05:48:48;11.90;91.80
38480;DHT22;62333;51.980;5.934;2023-03-14T05:51:14;11.90;91.90
38480;DHT22;62333;51.980;5.934;2023-03-14T05:53:40;11.80;92.00
38480;DHT22;62333;51.980;5.934;2023-03-14T05:56:06;11.80;92.20
38480;DHT22;62333;51.980;5.934;2023-03-14T05:58:32;11.80;92.40
38480;DHT22;62333;51.980;5.934;2023-03-14T06:00:57;11.70;92.40
38480;DHT22;62333;51.980;5.934;2023-03-14T06:03:23;11.70;92.70
38480;DHT22;62333;51.980;5.934;2023-03-14T06:05:52;11.60;92.70
38480;DHT22;62333;51.980;5.934;2023-03-14T06:08:17;11.60;92.80
38480;DHT22;62333;51.980;5.934;2023-03-14T06:10:43;11.60;92.90
38480;DHT22;62333;51.980;5.934;2023-03-14T06:13:09;11.60;93.10
38480;DHT22;62333;51.980;5.934;2023-03-14T06:15:34;11.60;93.20
38480;DHT22;62333;51.980;5.934;2023-03-14T06:18:01;11.60;93.20
38480;DHT22;62333;51.980;5.934;2023-03-14T06:20:27;11.60;93.10
38480;DHT22;62333;51.980;5.934;2023-03-14T06:22:52;11.60;93.10
38480;DHT22;62333;51.980;5.934;2023-03-14T06:25:18;11.50;93.50
38480;DHT22;62333;51.980;5.934;2023-03-14T06:27:44;11.50;93.50
38480;DHT22;62333;51.980;5.934;2023-03-14T06:30:10;11.60;93.50
38480;DHT22;62333;51.980;5.934;2023-03-14T06:32:36;11.60;93.50
38480;DHT22;62333;51.980;5.934;2023-03-14T06:35:01;11.60;93.50
38480;DHT22;62333;51.980;5.934;2023-03-14T06:37:28;11.60;93.60
38480;DHT22;62333;51.980;5.934;2023-03-14T06:39:55;11.60;94.10
38480;DHT22;62333;51.980;5.934;2023-03-14T06:42:21;11.50;94.40
38480;DHT22;62333;51.980;5.934;2023-03-14T06:44:46;11.40;94.60
38480;DHT22;62333;51.980;5.934;2023-03-14T06:47:12;11.40;94.60
38480;DHT22;62333;51.980;5.934;2023-03-14T06:49:38;11.40;94.80
38480;DHT22;62333;51.980;5.934;2023-03-14T06:52:04;11.40;94.80
38480;DHT22;62333;51.980;5.934;2023-03-14T06:54:29;11.40;94.80
38480;DHT22;62333;51.980;5.934;2023-03-14T06:56:55;11.40;94.70
38480;DHT22;62333;51.980;5.934;2023-03-14T06:59:21;11.50;94.80
38480;DHT22;62333;51.980;5.934;2023-03-14T07:01:46;11.40;94.90
38480;DHT22;62333;51.980;5.934;2023-03-14T07:04:13;11.50;95.00
38480;DHT22;62333;51.980;5.934;2023-03-14T07:06:39;11.40;95.00
38480;DHT22;62333;51.980;5.934;2023-03-14T07:09:10;11.50;95.10
38480;DHT22;62333;51.980;5.934;2023-03-14T07:11:35;11.40;95.40
38480;DHT22;62333;51.980;5.934;2023-03-14T07:14:01;11.50;95.50
38480;DHT22;62333;51.980;5.934;2023-03-14T07:16:27;11.50;95.50
38480;DHT22;62333;51.980;5.934;2023-03-14T07:18:54;11.50;95.60
38480;DHT22;62333;51.980;5.934;2023-03-14T07:21:20;11.50;95.50
38480;DHT22;62333;51.980;5.934;2023-03-14T07:23:45;11.50;95.50
38480;DHT22;62333;51.980;5.934;2023-03-14T07:26:11;11.50;95.60
38480;DHT22;62333;51.980;5.934;2023-03-14T07:28:37;11.50;95.80
38480;DHT22;62333;51.980;5.934;2023-03-14T07:31:02;11.50;95.80
38480;DHT22;62333;51.980;5.934;2023-03-14T07:33:28;11.50;95.80
38480;DHT22;62333;51.980;5.934;2023-03-14T07:35:54;11.50;95.60
38480;DHT22;62333;51.980;5.934;2023-03-14T07:38:19;11.50;95.30
38480;DHT22;62333;51.980;5.934;2023-03-14T07:40:45;11.50;95.10
38480;DHT22;62333;51.980;5.934;2023-03-14T07:43:10;11.40;94.90
38480;DHT22;62333;51.980;5.934;2023-03-14T07:45:36;11.50;94.90
38480;DHT22;62333;51.980;5.934;2023-03-14T07:48:02;11.40;94.80
38480;DHT22;62333;51.980;5.934;2023-03-14T07:50:28;11.40;94.60
38480;DHT22;62333;51.980;5.934;2023-03-14T07:52:54;11.30;94.20
38480;DHT22;62333;51.980;5.934;2023-03-14T07:55:20;11.30;94.20
38480;DHT22;62333;51.980;5.934;2023-03-14T07:57:46;11.20;94.10
38480;DHT22;62333;51.980;5.934;2023-03-14T08:00:12;11.20;94.10
38480;DHT22;62333;51.980;5.934;2023-03-14T08:02:40;11.10;94.10
38480;DHT22;62333;51.980;5.934;2023-03-14T08:05:06;11.10;94.10
38480;DHT22;62333;51.980;5.934;2023-03-14T08:07:32;11.20;94.00
38480;DHT22;62333;51.980;5.934;2023-03-14T08:09:57;11.10;93.90
38480;DHT22;62333;51.980;5.934;2023-03-14T08:12:23;11.10;93.80
38480;DHT22;62333;51.980;5.934;2023-03-14T08:14:49;11.10;93.80
38480;DHT22;62333;51.980;5.934;2023-03-14T08:17:14;11.10;93.70
38480;DHT22;62333;51.980;5.934;2023-03-14T08:19:43;11.00;93.60
38480;DHT22;62333;51.980;5.934;2023-03-14T08:22:09;11.00;93.60
38480;DHT22;62333;51.980;5.934;2023-03-14T08:24:34;11.00;93.80
38480;DHT22;62333;51.980;5.934;2023-03-14T08:27:00;11.00;93.50
38480;DHT22;62333;51.980;5.934;2023-03-14T08:29:26;11.00;93.40
38480;DHT22;62333;51.980;5.934;2023-03-14T08:31:51;11.00;93.40
38480;DHT22;62333;51.980;5.934;2023-03-14T08:34:17;11.00;93.30
38480;DHT22;62333;51.980;5.934;2023-03-14T08:36:43;11.00;93.30
38480;DHT22;62333;51.980;5.934;2023-03-14T08:39:10;11.00;93.20
38480;DHT22;62333;51.980;5.934;2023-03-14T08:41:35;11.00;93.00
38480;DHT22;62333;51.980;5.934;2023-03-14T08:44:06;11.00;93.00
38480;DHT22;62333;51.980;5.934;2023-03-14T08:46:32;10.90;92.90
38480;DHT22;62333;51.980;5.934;2023-03-14T08:48:58;11.00;92.90
38480;DHT22;62333;51.980;5.934;2023-03-14T08:51:23;11.00;92.80
38480;DHT22;62333;51.980;5.934;2023-03-14T08:53:49;11.00;92.70
38480;DHT22;62333;51.980;5.934;2023-03-14T08:56:15;11.00;92.60
38480;DHT22;62333;51.980;5.934;2023-03-14T08:58:42;10.90;92.40
38480;DHT22;62333;51.980;5.934;2023-03-14T09:01:09;10.90;92.20
38480;DHT22;62333;51.980;5.934;2023-03-14T09:03:35;10.90;92.10
38480;DHT22;62333;51.980;5.934;2023-03-14T09:06:05;10.80;92.00
38480;DHT22;62333;51.980;5.934;2023-03-14T09:08:31;10.90;92.00
38480;DHT22;62333;51.980;5.934;2023-03-14T09:10:56;10.90;91.80
38480;DHT22;62333;51.980;5.934;2023-03-14T09:13:22;10.90;91.70
38480;DHT22;62333;51.980;5.934;2023-03-14T09:15:55;11.00;91.50
38480;DHT22;62333;51.980;5.934;2023-03-14T09:18:21;11.00;91.30
38480;DHT22;62333;51.980;5.934;2023-03-14T09:20:47;10.90;91.20
38480;DHT22;62333;51.980;5.934;2023-03-14T09:23:13;10.90;91.20
38480;DHT22;62333;51.980;5.934;2023-03-14T09:25:39;10.80;91.10
38480;DHT22;62333;51.980;5.934;2023-03-14T09:28:05;10.80;91.00
38480;DHT22;62333;51.980;5.934;2023-03-14T09:30:31;10.70;91.00
38480;DHT22;62333;51.980;5.934;2023-03-14T09:32:57;10.80;90.90
38480;DHT22;62333;51.980;5.934;2023-03-14T09:35:23;10.70;90.70
38480;DHT22;62333;51.980;5.934;2023-03-14T09:37:48;10.70;90.50
38480;DHT22;62333;51.980;5.934;2023-03-14T09:40:18;10.80;90.50
38480;DHT22;62333;51.980;5.934;2023-03-14T09:42:50;10.90;90.40
38480;DHT22;62333;51.980;5.934;2023-03-14T09:45:27;11.00;90.20
38480;DHT22;62333;51.980;5.934;2023-03-14T09:47:55;11.20;90.00
38480;DHT22;62333;51.980;5.934;2023-03-14T09:50:22;11.20;89.60
38480;DHT22;62333;51.980;5.934;2023-03-14T09:52:52;11.30;88.90
38480;DHT22;62333;51.980;5.934;2023-03-14T09:55:22;11.40;88.40
38480;DHT22;62333;51.980;5.934;2023-03-14T09:57:58;11.50;87.90
38480;DHT22;62333;51.980;5.934;2023-03-14T10:00:29;11.60;87.80
38480;DHT22;62333;51.980;5.934;2023-03-14T10:03:00;11.60;87.10
38480;DHT22;62333;51.980;5.934;2023-03-14T10:05:27;11.70;86.70
38480;DHT22;62333;51.980;5.934;2023-03-14T10:07:55;11.70;86.40
38480;DHT22;62333;51.980;5.934;2023-03-14T10:10:23;11.80;85.30
38480;DHT22;62333;51.980;5.934;2023-03-14T10:15:38;11.80;83.80
38480;DHT22;62333;51.980;5.934;2023-03-14T10:18:10;11.80;83.80
38480;DHT22;62333;51.980;5.934;2023-03-14T10:20:42;11.90;84.00
38480;DHT22;62333;51.980;5.934;2023-03-14T10:25:42;12.00;83.50
38480;DHT22;62333;51.980;5.934;2023-03-14T10:30:51;12.00;82.70
38480;DHT22;62333;51.980;5.934;2023-03-14T10:33:25;11.90;82.40
38480;DHT22;62333;51.980;5.934;2023-03-14T10:36:23;11.90;82.40
38480;DHT22;62333;51.980;5.934;2023-03-14T10:41:47;11.90;82.70
38480;DHT22;62333;51.980;5.934;2023-03-14T10:44:22;11.90;81.70
38480;DHT22;62333;51.980;5.934;2023-03-14T10:47:17;11.90;81.70
38480;DHT22;62333;51.980;5.934;2023-03-14T10:49:43;12.00;81.60
38480;DHT22;62333;51.980;5.934;2023-03-14T10:52:13;12.00;81.00
38480;DHT22;62333;51.980;5.934;2023-03-14T10:54:39;11.90;80.80
38480;DHT22;62333;51.980;5.934;2023-03-14T10:57:05;12.00;81.20
38480;DHT22;62333;51.980;5.934;2023-03-14T10:59:39;12.00;81.10
38480;DHT22;62333;51.980;5.934;2023-03-14T11:02:39;12.00;80.70
38480;DHT22;62333;51.980;5.934;2023-03-14T11:10:44;11.80;80.80
38480;DHT22;62333;51.980;5.934;2023-03-14T11:13:43;11.70;80.50
38480;DHT22;62333;51.980;5.934;2023-03-14T11:16:31;11.60;80.30
38480;DHT22;62333;51.980;5.934;2023-03-14T11:22:20;11.70;80.70
38480;DHT22;62333;51.980;5.934;2023-03-14T11:25:15;11.90;80.40
38480;DHT22;62333;51.980;5.934;2023-03-14T11:28:15;12.00;80.40
38480;DHT22;62333;51.980;5.934;2023-03-14T11:30:54;12.10;80.10
38480;DHT22;62333;51.980;5.934;2023-03-14T11:33:39;12.10;79.90
38480;DHT22;62333;51.980;5.934;2023-03-14T11:36:10;12.20;79.90
38480;DHT22;62333;51.980;5.934;2023-03-14T11:41:38;12.10;78.80
38480;DHT22;62333;51.980;5.934;2023-03-14T11:44:15;12.10;78.80
38480;DHT22;62333;51.980;5.934;2023-03-14T11:54:58;12.50;77.60
38480;DHT22;62333;51.980;5.934;2023-03-14T11:57:25;12.80;77.10
38480;DHT22;62333;51.980;5.934;2023-03-14T12:05:38;14.00;75.50
38480;DHT22;62333;51.980;5.934;2023-03-14T12:10:49;15.00;71.40
38480;DHT22;62333;51.980;5.934;2023-03-14T12:13:17;15.20;69.90
38480;DHT22;62333;51.980;5.934;2023-03-14T12:16:32;15.30;69.80
38480;DHT22;62333;51.980;5.934;2023-03-14T12:18:55;15.30;68.10
38480;DHT22;62333;51.980;5.934;2023-03-14T12:21:22;15.30;66.80
38480;DHT22;62333;51.980;5.934;2023-03-14T12:23:56;15.10;65.10
38480;DHT22;62333;51.980;5.934;2023-03-14T12:26:25;15.00;64.90
38480;DHT22;62333;51.980;5.934;2023-03-14T12:42:35;15.10;57.20
38480;DHT22;62333;51.980;5.934;2023-03-14T12:45:28;15.20;56.10
38480;DHT22;62333;51.980;5.934;2023-03-14T12:48:30;15.30;55.70
38480;DHT22;62333;51.980;5.934;2023-03-14T12:51:13;15.50;53.70
38480;DHT22;62333;51.980;5.934;2023-03-14T12:56:57;15.50;53.10
38480;DHT22;62333;51.980;5.934;2023-03-14T12:59:36;15.60;53.00
38480;DHT22;62333;51.980;5.934;2023-03-14T13:02:59;15.70;51.90
38480;DHT22;62333;51.980;5.934;2023-03-14T13:05:12;15.70;49.60
38480;DHT22;62333;51.980;5.934;2023-03-14T13:18:16;16.00;48.80
38480;DHT22;62333;51.980;5.934;2023-03-14T13:23:29;16.30;48.30
38480;DHT22;62333;51.980;5.934;2023-03-14T13:25:56;16.40;47.40
38480;DHT22;62333;51.980;5.934;2023-03-14T13:28:22;16.50;46.70
38480;DHT22;62333;51.980;5.934;2023-03-14T13:30:50;16.50;47.10
38480;DHT22;62333;51.980;5.934;2023-03-14T13:33:22;16.60;47.10
38480;DHT22;62333;51.980;5.934;2023-03-14T13:36:02;16.50;46.90
38480;DHT22;62333;51.980;5.934;2023-03-14T13:38:32;16.50;46.90
38480;DHT22;62333;51.980;5.934;2023-03-14T13:40:59;16.40;45.40
38480;DHT22;62333;51.980;5.934;2023-03-14T13:43:32;16.40;45.40
38480;DHT22;62333;51.980;5.934;2023-03-14T13:48:31;16.20;44.70
38480;DHT22;62333;51.980;5.934;2023-03-14T13:51:06;16.20;44.60
38480;DHT22;62333;51.980;5.934;2023-03-14T13:53:51;16.20;44.30
38480;DHT22;62333;51.980;5.934;2023-03-14T13:56:19;16.10;42.80
38480;DHT22;62333;51.980;5.934;2023-03-14T13:58:45;16.10;42.10
38480;DHT22;62333;51.980;5.934;2023-03-14T14:01:19;16.10;42.70
38480;DHT22;62333;51.980;5.934;2023-03-14T14:03:48;16.20;42.90
38480;DHT22;62333;51.980;5.934;2023-03-14T14:06:38;16.30;42.80
38480;DHT22;62333;51.980;5.934;2023-03-14T14:09:12;16.20;42.20
38480;DHT22;62333;51.980;5.934;2023-03-14T14:14:22;16.10;41.80
38480;DHT22;62333;51.980;5.934;2023-03-14T14:16:51;16.10;41.50
38480;DHT22;62333;51.980;5.934;2023-03-14T14:19:18;16.10;41.30
38480;DHT22;62333;51.980;5.934;2023-03-14T14:21:45;16.10;41.60
38480;DHT22;62333;51.980;5.934;2023-03-14T14:24:14;15.90;41.50
38480;DHT22;62333;51.980;5.934;2023-03-14T14:26:51;15.80;41.60
38480;DHT22;62333;51.980;5.934;2023-03-14T14:29:30;15.60;42.00
38480;DHT22;62333;51.980;5.934;2023-03-14T14:34:41;15.30;41.80
38480;DHT22;62333;51.980;5.934;2023-03-14T14:37:19;15.10;41.30
38480;DHT22;62333;51.980;5.934;2023-03-14T14:39:45;15.10;42.00
38480;DHT22;62333;51.980;5.934;2023-03-14T14:42:16;15.00;42.20
38480;DHT22;62333;51.980;5.934;2023-03-14T14:44:43;15.00;42.50
38480;DHT22;62333;51.980;5.934;2023-03-14T14:47:14;15.00;42.40
38480;DHT22;62333;51.980;5.934;2023-03-14T14:49:41;15.10;42.50
38480;DHT22;62333;51.980;5.934;2023-03-14T14:52:13;15.20;42.00
38480;DHT22;62333;51.980;5.934;2023-03-14T14:54:59;15.00;41.60
38480;DHT22;62333;51.980;5.934;2023-03-14T14:57:28;14.90;41.60
38480;DHT22;62333;51.980;5.934;2023-03-14T15:00:00;14.80;41.70
38480;DHT22;62333;51.980;5.934;2023-03-14T15:04:51;14.40;41.60
38480;DHT22;62333;51.980;5.934;2023-03-14T15:07:17;14.20;41.70
38480;DHT22;62333;51.980;5.934;2023-03-14T15:09:43;14.10;42.10
38480;DHT22;62333;51.980;5.934;2023-03-14T15:12:08;13.90;41.80
38480;DHT22;62333;51.980;5.934;2023-03-14T15:14:34;13.80;41.30
38480;DHT22;62333;51.980;5.934;2023-03-14T15:17:00;13.60;41.10
38480;DHT22;62333;51.980;5.934;2023-03-14T15:19:26;13.50;41.60
38480;DHT22;62333;51.980;5.934;2023-03-14T15:21:55;13.30;41.20
38480;DHT22;62333;51.980;5.934;2023-03-14T15:24:21;13.10;41.20
38480;DHT22;62333;51.980;5.934;2023-03-14T15:26:47;13.00;41.20
38480;DHT22;62333;51.980;5.934;2023-03-14T15:29:13;12.80;41.50
38480;DHT22;62333;51.980;5.934;2023-03-14T15:31:40;12.70;41.90
38480;DHT22;62333;51.980;5.934;2023-03-14T15:34:06;12.70;42.20
38480;DHT22;62333;51.980;5.934;2023-03-14T15:36:33;12.60;42.40
38480;DHT22;62333;51.980;5.934;2023-03-14T15:39:00;12.50;42.70
38480;DHT22;62333;51.980;5.934;2023-03-14T15:41:26;12.40;42.90
38480;DHT22;62333;51.980;5.934;2023-03-14T15:43:52;12.40;43.30
38480;DHT22;62333;51.980;5.934;2023-03-14T15:46:18;12.30;43.40
38480;DHT22;62333;51.980;5.934;2023-03-14T15:48:45;12.20;43.60
38480;DHT22;62333;51.980;5.934;2023-03-14T15:51:11;12.20;44.00
38480;DHT22;62333;51.980;5.934;2023-03-14T15:53:37;12.20;44.20
38480;DHT22;62333;51.980;5.934;2023-03-14T15:56:07;12.10;44.50
38480;DHT22;62333;51.980;5.934;2023-03-14T15:58:35;12.10;44.70
38480;DHT22;62333;51.980;5.934;2023-03-14T16:01:01;12.10;44.90
38480;DHT22;62333;51.980;5.934;2023-03-14T16:03:28;12.00;45.20
38480;DHT22;62333;51.980;5.934;2023-03-14T16:05:54;12.00;45.60
38480;DHT22;62333;51.980;5.934;2023-03-14T16:08:21;11.90;46.40
38480;DHT22;62333;51.980;5.934;2023-03-14T16:10:47;11.90;46.10
38480;DHT22;62333;51.980;5.934;2023-03-14T16:13:12;11.80;46.30
38480;DHT22;62333;51.980;5.934;2023-03-14T16:15:38;11.80;46.50
38480;DHT22;62333;51.980;5.934;2023-03-14T16:18:04;11.80;46.70
38480;DHT22;62333;51.980;5.934;2023-03-14T16:20:30;11.80;46.80
38480;DHT22;62333;51.980;5.934;2023-03-14T16:22:55;11.70;47.00
38480;DHT22;62333;51.980;5.934;2023-03-14T16:25:21;11.70;47.10
38480;DHT22;62333;51.980;5.934;2023-03-14T16:27:47;11.60;47.20
38480;DHT22;62333;51.980;5.934;2023-03-14T16:30:13;11.50;47.20
38480;DHT22;62333;51.980;5.934;2023-03-14T16:32:39;11.50;47.40
38480;DHT22;62333;51.980;5.934;2023-03-14T16:35:05;11.40;47.30
38480;DHT22;62333;51.980;5.934;2023-03-14T16:37:31;11.30;47.20
38480;DHT22;62333;51.980;5.934;2023-03-14T16:39:57;11.20;47.30
38480;DHT22;62333;51.980;5.934;2023-03-14T16:42:23;11.10;47.20
38480;DHT22;62333;51.980;5.934;2023-03-14T16:44:48;11.10;47.30
38480;DHT22;62333;51.980;5.934;2023-03-14T16:47:14;11.00;47.90
38480;DHT22;62333;51.980;5.934;2023-03-14T16:49:40;10.90;47.40
38480;DHT22;62333;51.980;5.934;2023-03-14T16:52:06;10.90;47.60
38480;DHT22;62333;51.980;5.934;2023-03-14T16:54:32;10.80;47.50
38480;DHT22;62333;51.980;5.934;2023-03-14T16:56:58;10.70;47.60
38480;DHT22;62333;51.980;5.934;2023-03-14T16:59:24;10.70;47.80
38480;DHT22;62333;51.980;5.934;2023-03-14T17:01:51;10.70;47.50
38480;DHT22;62333;51.980;5.934;2023-03-14T17:04:17;10.60;47.20